Archival Weather

Sydney Intl

Sydney, Australia (YSSY)

Report from: Sunday, March 19, 2023 8:30 PM AEDT
Current time: Tuesday, February 27, 2024 9:41 PM AEDT

Current weather – Weather history – Daily summaries
Weather forecast

Present weatherPRFG, fog, TO
Temperature23.0°C (73.4°F)
Dew point23.0°C (73.4°F)
Winds 14 kts (7.2 m/s, 16.1 mph) South-Southeast (160°)
Visibility4.3 mi. (7 km)
Clouds Ceiling: Broken clouds 500 ft. (152 m)
Altimeter30.03 in.Hg (1017 mB)
Relative humidity100 %
Density altitude1,181 ft. (360 m)
Flight conditions Instrument Meteorological Conditions
Raw dataYSSY 190930Z 16014KT 7000 PRFG BKN005 23/23 Q1017 RF00.0/000.0 FG TO N
An error has occurred. This application may no longer respond until reloaded. Reload 🗙